Terminal Aerodrome Forecast
Issued by NWS Blacksburg, VA

Current Version | Previous Version | Graphics & Text | Print | Product List | Glossary On
Versions: 1 2 3 4 5 6 7 8 9 10 11 12 13 14 15 16 17 18 19 20 21 22 23 24 25 26
000
FTUS41 KRNK 200530
TAFBLF
TAF
KBLF 200530Z 2006/2106 26013G26KT P6SM OVC050
     FM200900 27010G20KT P6SM BKN025 OVC035
     FM201500 28013G23KT P6SM BKN035
     FM202300 28011KT P6SM SCT035
     FM210300 28008KT P6SM SKC=

USA.gov is the U.S. government's official web portal to all federal, state and local government web resources and services.